sensor_id;sensor_type;location;lat;lon;timestamp;pressure;altitude;pressure_sealevel;temperature;humidity
12969;BME280;6549;53.128;8.182;2023-04-01T00:02:12;99106.22;;;9.48;100.00
12969;BME280;6549;53.128;8.182;2023-04-01T00:05:12;99111.75;;;9.45;100.00
12969;BME280;6549;53.128;8.182;2023-04-01T00:08:13;99108.66;;;9.43;100.00
12969;BME280;6549;53.128;8.182;2023-04-01T00:11:15;99108.66;;;9.43;100.00
12969;BME280;6549;53.128;8.182;2023-04-01T00:14:15;99114.56;;;9.41;100.00
12969;BME280;6549;53.128;8.182;2023-04-01T00:17:15;99101.63;;;9.42;100.00
12969;BME280;6549;53.128;8.182;2023-04-01T00:20:16;99107.53;;;9.40;100.00
12969;BME280;6549;53.128;8.182;2023-04-01T00:23:18;99109.16;;;9.38;100.00
12969;BME280;6549;53.128;8.182;2023-04-01T00:26:19;99109.56;;;9.36;100.00
12969;BME280;6549;53.128;8.182;2023-04-01T00:29:21;99104.41;;;9.38;100.00
12969;BME280;6549;53.128;8.182;2023-04-01T00:32:21;99108.63;;;9.46;100.00
12969;BME280;6549;53.128;8.182;2023-04-01T00:35:21;99109.03;;;9.45;100.00
12969;BME280;6549;53.128;8.182;2023-04-01T00:38:22;99108.63;;;9.46;100.00
12969;BME280;6549;53.128;8.182;2023-04-01T00:41:22;99107.13;;;9.42;100.00
12969;BME280;6549;53.128;8.182;2023-04-01T00:44:26;99105.50;;;9.44;100.00
12969;BME280;6549;53.128;8.182;2023-04-01T00:47:27;99111.28;;;9.50;100.00
12969;BME280;6549;53.128;8.182;2023-04-01T00:50:28;99113.25;;;9.50;100.00
12969;BME280;6549;53.128;8.182;2023-04-01T00:53:31;99104.56;;;9.55;100.00
12969;BME280;6549;53.128;8.182;2023-04-01T00:56:46;99105.44;;;9.48;100.00
12969;BME280;6549;53.128;8.182;2023-04-01T00:59:52;99112.41;;;9.53;100.00
12969;BME280;6549;53.128;8.182;2023-04-01T01:02:54;99109.31;;;9.51;100.00
12969;BME280;6549;53.128;8.182;2023-04-01T01:06:08;99106.94;;;9.53;100.00
12969;BME280;6549;53.128;8.182;2023-04-01T01:12:21;99107.41;;;9.47;100.00
12969;BME280;6549;53.128;8.182;2023-04-01T01:15:26;99109.38;;;9.47;100.00
12969;BME280;6549;53.128;8.182;2023-04-01T01:25:24;99106.22;;;9.48;100.00
12969;BME280;6549;53.128;8.182;2023-04-01T01:29:08;99106.22;;;9.48;100.00
12969;BME280;6549;53.128;8.182;2023-04-01T01:35:50;99112.88;;;9.47;100.00
12969;BME280;6549;53.128;8.182;2023-04-01T01:38:52;99111.94;;;9.58;100.00
12969;BME280;6549;53.128;8.182;2023-04-01T01:41:56;99108.13;;;9.52;100.00
12969;BME280;6549;53.128;8.182;2023-04-01T01:44:58;99109.25;;;9.54;100.00
12969;BME280;6549;53.128;8.182;2023-04-01T01:48:02;99107.63;;;9.57;100.00
12969;BME280;6549;53.128;8.182;2023-04-01T01:51:07;99109.31;;;9.51;100.00
12969;BME280;6549;53.128;8.182;2023-04-01T01:54:17;99107.47;;;9.44;100.00
12969;BME280;6549;53.128;8.182;2023-04-01T01:57:23;99112.16;;;9.43;100.00
12969;BME280;6549;53.128;8.182;2023-04-01T02:00:25;99112.53;;;9.45;100.00
12969;BME280;6549;53.128;8.182;2023-04-01T02:03:28;99115.94;;;9.53;100.00
12969;BME280;6549;53.128;8.182;2023-04-01T02:06:32;99126.59;;;9.47;100.00
12969;BME280;6549;53.128;8.182;2023-04-01T02:09:34;99124.56;;;9.52;100.00
12969;BME280;6549;53.128;8.182;2023-04-01T02:12:36;99120.16;;;9.58;100.00
12969;BME280;6549;53.128;8.182;2023-04-01T02:15:42;99122.66;;;9.48;100.00
12969;BME280;6549;53.128;8.182;2023-04-01T02:18:45;99126.13;;;9.53;100.00
12969;BME280;6549;53.128;8.182;2023-04-01T02:21:50;99126.56;;;9.51;100.00
12969;BME280;6549;53.128;8.182;2023-04-01T02:24:54;99125.78;;;9.51;100.00
12969;BME280;6549;53.128;8.182;2023-04-01T02:27:59;99126.59;;;9.47;100.00
12969;BME280;6549;53.128;8.182;2023-04-01T02:31:00;99127.03;;;9.46;100.00
12969;BME280;6549;53.128;8.182;2023-04-01T02:34:03;99123.56;;;9.42;100.00
12969;BME280;6549;53.128;8.182;2023-04-01T02:37:04;99130.19;;;9.44;100.00
12969;BME280;6549;53.128;8.182;2023-04-01T02:40:06;99130.59;;;9.43;100.00
12969;BME280;6549;53.128;8.182;2023-04-01T02:43:07;99131.44;;;9.40;100.00
12969;BME280;6549;53.128;8.182;2023-04-01T02:46:07;99138.06;;;9.42;100.00
12969;BME280;6549;53.128;8.182;2023-04-01T02:49:08;99129.09;;;9.38;100.00
12969;BME280;6549;53.128;8.182;2023-04-01T02:52:08;99136.97;;;9.36;100.00
12969;BME280;6549;53.128;8.182;2023-04-01T02:55:08;99138.56;;;9.34;100.00
12969;BME280;6549;53.128;8.182;2023-04-01T02:58:09;99143.28;;;9.33;100.00
12969;BME280;6549;53.128;8.182;2023-04-01T03:01:09;99148.00;;;9.33;100.00
12969;BME280;6549;53.128;8.182;2023-04-01T03:04:10;99145.25;;;9.33;100.00
12969;BME280;6549;53.128;8.182;2023-04-01T03:07:10;99150.31;;;9.34;100.00
12969;BME280;6549;53.128;8.182;2023-04-01T03:10:10;99155.00;;;9.34;100.00
12969;BME280;6549;53.128;8.182;2023-04-01T03:13:11;99152.56;;;9.39;100.00
12969;BME280;6549;53.128;8.182;2023-04-01T03:16:11;99151.16;;;9.31;100.00
12969;BME280;6549;53.128;8.182;2023-04-01T03:19:11;99163.44;;;9.46;100.00
12969;BME280;6549;53.128;8.182;2023-04-01T03:22:12;99158.06;;;9.39;100.00
12969;BME280;6549;53.128;8.182;2023-04-01T03:25:12;99159.75;;;9.33;100.00
12969;BME280;6549;53.128;8.182;2023-04-01T03:28:12;99161.28;;;9.34;100.00
12969;BME280;6549;53.128;8.182;2023-04-01T03:31:13;99162.03;;;9.35;100.00
12969;BME280;6549;53.128;8.182;2023-04-01T03:34:14;99163.53;;;9.39;100.00
12969;BME280;6549;53.128;8.182;2023-04-01T03:37:15;99158.91;;;9.36;100.00
12969;BME280;6549;53.128;8.182;2023-04-01T03:40:15;99165.63;;;9.32;100.00
12969;BME280;6549;53.128;8.182;2023-04-01T03:43:15;99161.38;;;9.27;100.00
12969;BME280;6549;53.128;8.182;2023-04-01T03:46:18;99168.44;;;9.28;100.00
12969;BME280;6549;53.128;8.182;2023-04-01T03:49:18;99165.69;;;9.28;100.00
12969;BME280;6549;53.128;8.182;2023-04-01T03:52:18;99167.59;;;9.31;100.00
12969;BME280;6549;53.128;8.182;2023-04-01T03:55:19;99177.06;;;9.27;100.00
12969;BME280;6549;53.128;8.182;2023-04-01T03:58:20;99175.88;;;9.28;100.00
12969;BME280;6549;53.128;8.182;2023-04-01T04:01:21;99174.72;;;9.25;100.00
12969;BME280;6549;53.128;8.182;2023-04-01T04:04:21;99181.09;;;9.19;100.00
12969;BME280;6549;53.128;8.182;2023-04-01T04:07:22;99177.56;;;9.18;100.00
12969;BME280;6549;53.128;8.182;2023-04-01T04:10:22;99183.06;;;9.18;100.00
12969;BME280;6549;53.128;8.182;2023-04-01T04:13:23;99184.63;;;9.19;100.00
12969;BME280;6549;53.128;8.182;2023-04-01T04:16:23;99188.53;;;9.18;100.00
12969;BME280;6549;53.128;8.182;2023-04-01T04:19:24;99189.72;;;9.17;100.00
12969;BME280;6549;53.128;8.182;2023-04-01T04:22:24;99181.09;;;9.19;100.00
12969;BME280;6549;53.128;8.182;2023-04-01T04:25:24;99191.69;;;9.17;100.00
12969;BME280;6549;53.128;8.182;2023-04-01T04:28:26;99196.34;;;9.20;100.00
12969;BME280;6549;53.128;8.182;2023-04-01T04:31:27;99198.38;;;9.16;100.00
12969;BME280;6549;53.128;8.182;2023-04-01T04:34:27;99198.41;;;9.12;100.00
12969;BME280;6549;53.128;8.182;2023-04-01T04:37:28;99198.00;;;9.14;100.00
12969;BME280;6549;53.128;8.182;2023-04-01T04:40:28;99212.09;;;9.12;100.00
12969;BME280;6549;53.128;8.182;2023-04-01T04:43:29;99217.50;;;9.19;100.00
12969;BME280;6549;53.128;8.182;2023-04-01T04:46:29;99208.50;;;9.19;100.00
12969;BME280;6549;53.128;8.182;2023-04-01T04:49:30;99212.06;;;9.16;100.00
12969;BME280;6549;53.128;8.182;2023-04-01T04:52:30;99214.03;;;9.15;100.00
12969;BME280;6549;53.128;8.182;2023-04-01T04:55:31;99219.41;;;9.22;100.00
12969;BME280;6549;53.128;8.182;2023-04-01T04:58:31;99222.59;;;9.17;100.00
12969;BME280;6549;53.128;8.182;2023-04-01T05:01:31;99221.88;;;9.13;100.00
12969;BME280;6549;53.128;8.182;2023-04-01T05:04:36;99230.47;;;9.15;100.00
12969;BME280;6549;53.128;8.182;2023-04-01T05:07:37;99228.16;;;9.14;100.00
12969;BME280;6549;53.128;8.182;2023-04-01T05:10:37;99239.50;;;9.12;100.00
12969;BME280;6549;53.128;8.182;2023-04-01T05:13:37;99235.13;;;9.18;100.00
12969;BME280;6549;53.128;8.182;2023-04-01T05:16:38;99250.44;;;9.16;100.00
12969;BME280;6549;53.128;8.182;2023-04-01T05:19:38;99241.91;;;9.10;100.00
12969;BME280;6549;53.128;8.182;2023-04-01T05:22:39;99246.94;;;9.12;100.00
12969;BME280;6549;53.128;8.182;2023-04-01T05:25:39;99252.13;;;9.06;100.00
12969;BME280;6549;53.128;8.182;2023-04-01T05:28:40;99254.88;;;9.06;100.00
12969;BME280;6549;53.128;8.182;2023-04-01T05:31:40;99255.22;;;9.08;100.00
12969;BME280;6549;53.128;8.182;2023-04-01T05:34:40;99260.25;;;9.13;100.00
12969;BME280;6549;53.128;8.182;2023-04-01T05:37:41;99260.19;;;9.20;100.00
12969;BME280;6549;53.128;8.182;2023-04-01T05:40:41;99254.31;;;9.18;100.00
12969;BME280;6549;53.128;8.182;2023-04-01T05:43:42;99260.97;;;9.17;100.00
12969;BME280;6549;53.128;8.182;2023-04-01T05:46:43;99259.41;;;9.16;100.00
12969;BME280;6549;53.128;8.182;2023-04-01T05:49:43;99262.94;;;9.17;100.00
12969;BME280;6549;53.128;8.182;2023-04-01T05:52:43;99273.00;;;9.27;100.00
12969;BME280;6549;53.128;8.182;2023-04-01T05:55:44;99274.22;;;9.22;100.00
12969;BME280;6549;53.128;8.182;2023-04-01T05:58:47;99271.88;;;9.24;100.00
12969;BME280;6549;53.128;8.182;2023-04-01T06:01:50;99282.78;;;9.28;100.00
12969;BME280;6549;53.128;8.182;2023-04-01T06:04:54;99281.53;;;9.32;100.00
12969;BME280;6549;53.128;8.182;2023-04-01T06:08:08;99280.25;;;9.40;100.00
12969;BME280;6549;53.128;8.182;2023-04-01T06:18:11;99280.34;;;9.33;100.00
12969;BME280;6549;53.128;8.182;2023-04-01T06:27:54;99303.78;;;9.38;100.00
12969;BME280;6549;53.128;8.182;2023-04-01T06:31:09;99304.91;;;9.40;100.00
12969;BME280;6549;53.128;8.182;2023-04-01T06:34:40;99309.94;;;9.45;100.00
12969;BME280;6549;53.128;8.182;2023-04-01T06:38:04;99305.19;;;9.50;100.00
12969;BME280;6549;53.128;8.182;2023-04-01T06:41:33;99316.03;;;9.57;100.00
12969;BME280;6549;53.128;8.182;2023-04-01T06:48:29;99317.59;;;9.58;100.00
12969;BME280;6549;53.128;8.182;2023-04-01T06:54:48;99323.19;;;9.51;100.00
12969;BME280;6549;53.128;8.182;2023-04-01T06:57:53;99338.44;;;9.52;100.00
12969;BME280;6549;53.128;8.182;2023-04-01T07:01:02;99334.97;;;9.47;100.00
12969;BME280;6549;53.128;8.182;2023-04-01T07:04:16;99340.94;;;9.42;100.00
12969;BME280;6549;53.128;8.182;2023-04-01T07:07:27;99334.97;;;9.47;100.00
12969;BME280;6549;53.128;8.182;2023-04-01T07:10:40;99339.50;;;9.61;100.00
12969;BME280;6549;53.128;8.182;2023-04-01T07:13:53;99341.44;;;9.64;100.00
12969;BME280;6549;53.128;8.182;2023-04-01T07:17:00;99346.22;;;9.57;100.00
12969;BME280;6549;53.128;8.182;2023-04-01T07:23:29;99365.47;;;9.53;100.00
12969;BME280;6549;53.128;8.182;2023-04-01T07:26:32;99363.81;;;9.59;100.00
12969;BME280;6549;53.128;8.182;2023-04-01T07:29:33;99357.84;;;9.68;100.00
12969;BME280;6549;53.128;8.182;2023-04-01T07:32:44;99372.34;;;9.65;100.00
12969;BME280;6549;53.128;8.182;2023-04-01T07:36:03;99378.28;;;9.63;100.00
12969;BME280;6549;53.128;8.182;2023-04-01T07:39:47;99386.25;;;9.81;100.00
12969;BME280;6549;53.128;8.182;2023-04-01T07:46:57;99385.59;;;9.70;100.00
12969;BME280;6549;53.128;8.182;2023-04-01T07:50:26;99388.28;;;9.77;100.00
12969;BME280;6549;53.128;8.182;2023-04-01T07:53:36;99394.16;;;9.75;100.00
12969;BME280;6549;53.128;8.182;2023-04-01T07:56:41;99390.59;;;10.05;100.00
12969;BME280;6549;53.128;8.182;2023-04-01T07:59:59;99396.34;;;10.14;100.00
12969;BME280;6549;53.128;8.182;2023-04-01T08:06:20;99407.22;;;10.25;100.00
12969;BME280;6549;53.128;8.182;2023-04-01T08:09:55;99410.63;;;10.32;100.00
12969;BME280;6549;53.128;8.182;2023-04-01T08:16:40;99418.50;;;10.30;100.00
12969;BME280;6549;53.128;8.182;2023-04-01T08:26:34;99423.44;;;10.66;100.00
12969;BME280;6549;53.128;8.182;2023-04-01T08:29:42;99427.22;;;10.72;100.00
12969;BME280;6549;53.128;8.182;2023-04-01T08:33:21;99433.34;;;10.83;100.00
12969;BME280;6549;53.128;8.182;2023-04-01T08:36:37;99430.34;;;10.74;100.00
12969;BME280;6549;53.128;8.182;2023-04-01T08:39:44;99448.09;;;10.69;100.00
12969;BME280;6549;53.128;8.182;2023-04-01T08:43:16;99442.66;;;10.66;100.00
12969;BME280;6549;53.128;8.182;2023-04-01T08:56:41;99455.81;;;11.01;100.00
12969;BME280;6549;53.128;8.182;2023-04-01T09:03:33;99461.53;;;11.10;100.00
12969;BME280;6549;53.128;8.182;2023-04-01T09:20:19;99471.44;;;11.04;100.00
12969;BME280;6549;53.128;8.182;2023-04-01T09:37:19;99508.00;;;11.24;100.00
12969;BME280;6549;53.128;8.182;2023-04-01T09:40:31;99508.84;;;11.21;100.00
12969;BME280;6549;53.128;8.182;2023-04-01T09:43:53;99513.69;;;11.14;100.00
12969;BME280;6549;53.128;8.182;2023-04-01T09:50:32;99526.28;;;11.11;100.00
12969;BME280;6549;53.128;8.182;2023-04-01T09:54:12;99534.69;;;11.27;100.00
12969;BME280;6549;53.128;8.182;2023-04-01T10:04:59;99544.88;;;11.50;100.00
12969;BME280;6549;53.128;8.182;2023-04-01T10:08:39;99554.63;;;11.32;100.00
12969;BME280;6549;53.128;8.182;2023-04-01T10:15:27;99560.72;;;10.96;100.00
12969;BME280;6549;53.128;8.182;2023-04-01T10:32:21;99594.63;;;9.95;100.00
12969;BME280;6549;53.128;8.182;2023-04-01T10:36:00;99590.03;;;9.85;100.00
12969;BME280;6549;53.128;8.182;2023-04-01T10:39:19;99599.22;;;9.68;100.00
12969;BME280;6549;53.128;8.182;2023-04-01T10:42:44;99601.97;;;9.68;100.00
12969;BME280;6549;53.128;8.182;2023-04-01T10:56:34;99632.38;;;9.39;100.00
12969;BME280;6549;53.128;8.182;2023-04-01T11:03:26;99632.00;;;9.37;100.00
12969;BME280;6549;53.128;8.182;2023-04-01T11:20:33;99657.91;;;9.33;100.00
12969;BME280;6549;53.128;8.182;2023-04-01T11:24:08;99664.25;;;9.19;100.00
12969;BME280;6549;53.128;8.182;2023-04-01T11:27:25;99679.09;;;9.22;100.00
12969;BME280;6549;53.128;8.182;2023-04-01T11:40:35;99699.94;;;9.09;100.00
12969;BME280;6549;53.128;8.182;2023-04-01T12:00:02;99758.88;;;8.62;100.00
12969;BME280;6549;53.128;8.182;2023-04-01T12:06:53;99751.47;;;8.48;100.00
12969;BME280;6549;53.128;8.182;2023-04-01T12:10:18;99758.44;;;8.63;100.00
12969;BME280;6549;53.128;8.182;2023-04-01T12:20:37;99782.31;;;8.66;100.00
12969;BME280;6549;53.128;8.182;2023-04-01T12:34:37;99798.41;;;8.39;100.00
12969;BME280;6549;53.128;8.182;2023-04-01T12:37:53;99804.66;;;8.26;100.00
12969;BME280;6549;53.128;8.182;2023-04-01T12:41:17;99812.09;;;8.32;100.00
12969;BME280;6549;53.128;8.182;2023-04-01T12:44:37;99826.94;;;8.17;100.00
12969;BME280;6549;53.128;8.182;2023-04-01T13:07:30;99854.31;;;8.28;100.00
12969;BME280;6549;53.128;8.182;2023-04-01T13:14:05;99871.91;;;8.16;100.00
12969;BME280;6549;53.128;8.182;2023-04-01T13:23:47;99888.69;;;8.14;100.00
12969;BME280;6549;53.128;8.182;2023-04-01T13:30:21;99901.28;;;8.30;100.00
12969;BME280;6549;53.128;8.182;2023-04-01T13:33:47;99903.16;;;8.15;100.00
12969;BME280;6549;53.128;8.182;2023-04-01T13:43:49;99921.19;;;8.27;100.00
12969;BME280;6549;53.128;8.182;2023-04-01T13:53:53;99935.59;;;7.99;100.00
12969;BME280;6549;53.128;8.182;2023-04-01T13:57:04;99944.97;;;7.98;100.00
12969;BME280;6549;53.128;8.182;2023-04-01T14:00:32;99948.50;;;7.98;100.00
12969;BME280;6549;53.128;8.182;2023-04-01T14:03:54;99946.91;;;7.94;100.00
12969;BME280;6549;53.128;8.182;2023-04-01T14:07:31;99951.25;;;8.09;100.00
12969;BME280;6549;53.128;8.182;2023-04-01T14:14:17;99966.44;;;7.92;100.00
12969;BME280;6549;53.128;8.182;2023-04-01T14:27:48;99988.25;;;7.67;100.00
12969;BME280;6549;53.128;8.182;2023-04-01T14:31:09;100002.78;;;7.86;100.00
12969;BME280;6549;53.128;8.182;2023-04-01T14:38:02;100019.19;;;7.86;100.00
12969;BME280;6549;53.128;8.182;2023-04-01T14:44:45;100030.84;;;7.68;100.00
12969;BME280;6549;53.128;8.182;2023-04-01T14:51:32;100037.81;;;7.62;100.00
12969;BME280;6549;53.128;8.182;2023-04-01T14:54:36;100035.16;;;7.70;100.00
12969;BME280;6549;53.128;8.182;2023-04-01T14:57:37;100058.50;;;7.56;100.00
12969;BME280;6549;53.128;8.182;2023-04-01T15:00:48;100050.25;;;7.49;100.00
12969;BME280;6549;53.128;8.182;2023-04-01T15:04:03;100054.13;;;7.48;100.00
12969;BME280;6549;53.128;8.182;2023-04-01T15:14:07;100064.59;;;7.36;100.00
12969;BME280;6549;53.128;8.182;2023-04-01T15:21:31;100093.50;;;7.33;100.00
12969;BME280;6549;53.128;8.182;2023-04-01T15:24:24;100091.47;;;7.23;100.00
12969;BME280;6549;53.128;8.182;2023-04-01T15:37:43;100132.75;;;7.14;100.00
12969;BME280;6549;53.128;8.182;2023-04-01T15:40:55;100139.66;;;7.01;100.00
12969;BME280;6549;53.128;8.182;2023-04-01T15:43:57;100134.47;;;6.86;100.00
12969;BME280;6549;53.128;8.182;2023-04-01T15:46:58;100148.59;;;6.95;100.00
12969;BME280;6549;53.128;8.182;2023-04-01T16:00:19;100175.03;;;6.87;100.00
12969;BME280;6549;53.128;8.182;2023-04-01T16:03:33;100188.91;;;6.71;100.00
12969;BME280;6549;53.128;8.182;2023-04-01T16:13:35;100196.03;;;6.80;100.00
12969;BME280;6549;53.128;8.182;2023-04-01T16:16:57;100213.16;;;6.76;100.00
12969;BME280;6549;53.128;8.182;2023-04-01T16:23:17;100236.50;;;6.41;100.00
12969;BME280;6549;53.128;8.182;2023-04-01T16:26:23;100231.00;;;6.37;100.00
12969;BME280;6549;53.128;8.182;2023-04-01T16:33:01;100233.28;;;6.35;100.00
12969;BME280;6549;53.128;8.182;2023-04-01T16:36:36;100235.84;;;6.51;100.00
12969;BME280;6549;53.128;8.182;2023-04-01T16:40:34;100249.72;;;6.39;100.00
12969;BME280;6549;53.128;8.182;2023-04-01T16:43:41;100253.22;;;6.39;100.00
12969;BME280;6549;53.128;8.182;2023-04-01T16:46:50;100270.03;;;6.41;100.00
12969;BME280;6549;53.128;8.182;2023-04-01T16:49:58;100277.38;;;6.37;100.00
12969;BME280;6549;53.128;8.182;2023-04-01T16:59:28;100306.63;;;6.37;100.00
12969;BME280;6549;53.128;8.182;2023-04-01T17:02:47;100317.06;;;6.31;100.00
12969;BME280;6549;53.128;8.182;2023-04-01T17:12:47;100326.50;;;6.37;100.00
12969;BME280;6549;53.128;8.182;2023-04-01T17:19:49;100348.38;;;6.14;100.00
12969;BME280;6549;53.128;8.182;2023-04-01T17:23:58;100352.72;;;6.19;100.00
12969;BME280;6549;53.128;8.182;2023-04-01T17:30:25;100376.56;;;6.22;100.00
12969;BME280;6549;53.128;8.182;2023-04-01T17:36:50;100386.91;;;6.13;100.00
12969;BME280;6549;53.128;8.182;2023-04-01T17:43:39;100404.72;;;6.07;100.00
12969;BME280;6549;53.128;8.182;2023-04-01T17:56:48;100421.72;;;5.97;100.00
12969;BME280;6549;53.128;8.182;2023-04-01T18:03:22;100462.66;;;5.81;100.00
12969;BME280;6549;53.128;8.182;2023-04-01T18:06:35;100459.97;;;6.00;100.00
12969;BME280;6549;53.128;8.182;2023-04-01T18:09:45;100466.72;;;5.87;100.00
12969;BME280;6549;53.128;8.182;2023-04-01T18:13:17;100472.44;;;6.01;100.00
12969;BME280;6549;53.128;8.182;2023-04-01T18:17:06;100479.69;;;5.94;100.00
12969;BME280;6549;53.128;8.182;2023-04-01T18:20:37;100495.56;;;5.88;100.00
12969;BME280;6549;53.128;8.182;2023-04-01T18:23:58;100498.97;;;5.85;100.00
12969;BME280;6549;53.128;8.182;2023-04-01T18:30:25;100530.13;;;5.65;100.00
12969;BME280;6549;53.128;8.182;2023-04-01T18:36:59;100541.44;;;5.67;100.00
12969;BME280;6549;53.128;8.182;2023-04-01T18:40:32;100543.53;;;5.73;100.00
12969;BME280;6549;53.128;8.182;2023-04-01T18:50:41;100571.63;;;5.58;100.00
12969;BME280;6549;53.128;8.182;2023-04-01T18:54:02;100575.22;;;5.62;100.00
12969;BME280;6549;53.128;8.182;2023-04-01T18:57:13;100580.97;;;5.57;100.00
12969;BME280;6549;53.128;8.182;2023-04-01T19:03:23;100591.50;;;5.59;100.00
12969;BME280;6549;53.128;8.182;2023-04-01T19:09:32;100615.81;;;5.48;100.00
12969;BME280;6549;53.128;8.182;2023-04-01T19:22:43;100640.88;;;5.38;100.00
12969;BME280;6549;53.128;8.182;2023-04-01T19:25:55;100650.09;;;5.33;100.00
12969;BME280;6549;53.128;8.182;2023-04-01T19:29:18;100658.00;;;5.38;100.00
12969;BME280;6549;53.128;8.182;2023-04-01T19:39:39;100664.78;;;5.29;100.00
12969;BME280;6549;53.128;8.182;2023-04-01T19:43:02;100675.06;;;5.20;100.00
12969;BME280;6549;53.128;8.182;2023-04-01T19:52:41;100699.28;;;5.09;100.00
12969;BME280;6549;53.128;8.182;2023-04-01T19:55:55;100717.38;;;5.02;100.00
12969;BME280;6549;53.128;8.182;2023-04-01T20:02:43;100724.03;;;4.88;100.00
12969;BME280;6549;53.128;8.182;2023-04-01T20:05:55;100732.19;;;4.88;100.00
12969;BME280;6549;53.128;8.182;2023-04-01T20:15:39;100757.41;;;4.85;100.00
12969;BME280;6549;53.128;8.182;2023-04-01T20:19:00;100757.56;;;4.77;100.00
12969;BME280;6549;53.128;8.182;2023-04-01T20:22:05;100779.41;;;4.80;100.00
12969;BME280;6549;53.128;8.182;2023-04-01T20:25:17;100784.69;;;4.73;100.00
12969;BME280;6549;53.128;8.182;2023-04-01T20:31:41;100801.41;;;4.87;100.00
12969;BME280;6549;53.128;8.182;2023-04-01T20:35:13;100802.69;;;4.78;100.00
12969;BME280;6549;53.128;8.182;2023-04-01T20:44:50;100823.41;;;4.82;100.00
12969;BME280;6549;53.128;8.182;2023-04-01T20:48:28;100825.66;;;4.92;100.00
12969;BME280;6549;53.128;8.182;2023-04-01T20:51:37;100830.69;;;4.78;100.00
12969;BME280;6549;53.128;8.182;2023-04-01T20:55:13;100832.28;;;4.79;100.00
12969;BME280;6549;53.128;8.182;2023-04-01T20:58:41;100846.13;;;4.74;100.00
12969;BME280;6549;53.128;8.182;2023-04-01T21:22:20;100884.59;;;4.61;100.00
12969;BME280;6549;53.128;8.182;2023-04-01T21:32:03;100900.59;;;4.62;100.00
12969;BME280;6549;53.128;8.182;2023-04-01T21:38:44;100912.84;;;4.44;100.00
12969;BME280;6549;53.128;8.182;2023-04-01T21:46:00;100930.88;;;4.36;100.00
12969;BME280;6549;53.128;8.182;2023-04-01T21:49:31;100934.13;;;4.30;100.00
12969;BME280;6549;53.128;8.182;2023-04-01T21:56:24;100955.69;;;4.35;100.00
12969;BME280;6549;53.128;8.182;2023-04-01T22:06:26;100964.16;;;4.21;100.00
12969;BME280;6549;53.128;8.182;2023-04-01T22:09:39;100972.78;;;4.23;100.00
12969;BME280;6549;53.128;8.182;2023-04-01T22:13:01;100991.00;;;4.11;100.00
12969;BME280;6549;53.128;8.182;2023-04-01T22:16:27;100989.88;;;4.12;100.00
12969;BME280;6549;53.128;8.182;2023-04-01T22:19:47;100995.63;;;3.98;100.00
12969;BME280;6549;53.128;8.182;2023-04-01T22:23:10;101000.38;;;4.01;100.00
12969;BME280;6549;53.128;8.182;2023-04-01T22:26:23;101008.75;;;3.96;100.00
12969;BME280;6549;53.128;8.182;2023-04-01T22:33:07;101028.84;;;3.83;100.00
12969;BME280;6549;53.128;8.182;2023-04-01T22:39:40;101047.44;;;3.60;100.00
12969;BME280;6549;53.128;8.182;2023-04-01T22:43:06;101055.31;;;3.53;100.00
12969;BME280;6549;53.128;8.182;2023-04-01T22:46:22;101064.06;;;3.58;100.00
12969;BME280;6549;53.128;8.182;2023-04-01T22:49:46;101068.91;;;3.53;100.00
12969;BME280;6549;53.128;8.182;2023-04-01T22:52:56;101077.25;;;3.48;100.00
12969;BME280;6549;53.128;8.182;2023-04-01T22:56:06;101083.63;;;3.52;100.00
12969;BME280;6549;53.128;8.182;2023-04-01T22:59:24;101085.97;;;3.33;100.00
12969;BME280;6549;53.128;8.182;2023-04-01T23:02:29;101096.69;;;3.29;100.00
12969;BME280;6549;53.128;8.182;2023-04-01T23:05:31;101109.28;;;3.34;100.00
12969;BME280;6549;53.128;8.182;2023-04-01T23:12:02;101121.19;;;3.21;100.00
12969;BME280;6549;53.128;8.182;2023-04-01T23:15:04;101120.28;;;3.08;100.00
12969;BME280;6549;53.128;8.182;2023-04-01T23:18:17;101133.75;;;2.96;100.00
12969;BME280;6549;53.128;8.182;2023-04-01T23:21:26;101146.19;;;2.97;100.00
12969;BME280;6549;53.128;8.182;2023-04-01T23:24:38;101156.75;;;2.90;100.00
12969;BME280;6549;53.128;8.182;2023-04-01T23:27:50;101153.56;;;2.79;100.00
12969;BME280;6549;53.128;8.182;2023-04-01T23:30:53;101155.97;;;2.81;100.00
12969;BME280;6549;53.128;8.182;2023-04-01T23:33:55;101159.47;;;2.90;100.00
12969;BME280;6549;53.128;8.182;2023-04-01T23:37:00;101181.34;;;2.85;100.00
12969;BME280;6549;53.128;8.182;2023-04-01T23:40:01;101175.78;;;2.81;100.00
12969;BME280;6549;53.128;8.182;2023-04-01T23:43:23;101186.78;;;2.76;100.00
12969;BME280;6549;53.128;8.182;2023-04-01T23:46:25;101191.56;;;2.79;100.00
12969;BME280;6549;53.128;8.182;2023-04-01T23:49:59;101187.63;;;2.59;100.00
12969;BME280;6549;53.128;8.182;2023-04-01T23:53:25;101201.34;;;2.54;100.00
12969;BME280;6549;53.128;8.182;2023-04-01T23:56:43;101219.22;;;2.55;100.00
